sensor_id;sensor_type;location;lat;lon;timestamp;pressure;altitude;pressure_sealevel;temperature;humidity
46946;BME280;32679;40.810;14.498;2024-02-21T06:44:55;75576.00;;;16.20;47.95
46946;BME280;32679;40.810;14.498;2024-02-21T06:47:21;75549.00;;;15.97;47.57
46946;BME280;32679;40.810;14.498;2024-02-21T06:49:50;75553.97;;;15.97;47.35
46946;BME280;32679;40.810;14.498;2024-02-21T06:52:19;75619.19;;;16.57;45.37
46946;BME280;32679;40.810;14.498;2024-02-21T06:54:49;75595.19;;;16.37;46.45
46946;BME280;32679;40.810;14.498;2024-02-21T06:57:14;75627.75;;;16.67;45.93
46946;BME280;32679;40.810;14.498;2024-02-21T06:59:41;75707.97;;;17.33;45.37
46946;BME280;32679;40.810;14.498;2024-02-21T07:02:07;75758.78;;;17.73;44.45
46946;BME280;32679;40.810;14.498;2024-02-21T07:04:32;75795.22;;;18.09;43.07
46946;BME280;32679;40.810;14.498;2024-02-21T07:06:58;75805.81;;;18.16;43.74
46946;BME280;32679;40.810;14.498;2024-02-21T07:09:23;75698.38;;;17.24;44.40
46946;BME280;32679;40.810;14.498;2024-02-21T07:11:49;75735.19;;;17.58;43.91
46946;BME280;32679;40.810;14.498;2024-02-21T07:14:14;75854.88;;;18.55;42.61
46946;BME280;32679;40.810;14.498;2024-02-21T07:16:41;75909.16;;;19.03;41.67
46946;BME280;32679;40.810;14.498;2024-02-21T07:19:06;75970.81;;;19.53;40.17
46946;BME280;32679;40.810;14.498;2024-02-21T07:21:32;75917.75;;;19.06;40.06
46946;BME280;32679;40.810;14.498;2024-02-21T07:23:57;75865.72;;;18.71;41.13
46946;BME280;32679;40.810;14.498;2024-02-21T07:26:23;75904.34;;;18.99;40.06
46946;BME280;32679;40.810;14.498;2024-02-21T07:28:48;75985.47;;;19.68;38.05
46946;BME280;32679;40.810;14.498;2024-02-21T07:31:13;75957.41;;;19.47;38.08
46946;BME280;32679;40.810;14.498;2024-02-21T07:33:39;76026.53;;;20.05;37.61
46946;BME280;32679;40.810;14.498;2024-02-21T07:36:10;75929.78;;;19.23;38.54
46946;BME280;32679;40.810;14.498;2024-02-21T07:38:35;76057.59;;;20.29;35.96
46946;BME280;32679;40.810;14.498;2024-02-21T07:41:01;75915.16;;;19.08;37.84
46946;BME280;32679;40.810;14.498;2024-02-21T07:43:26;76054.00;;;20.26;36.46
46946;BME280;32679;40.810;14.498;2024-02-21T07:45:52;75861.66;;;18.63;38.11
46946;BME280;32679;40.810;14.498;2024-02-21T07:48:21;75918.16;;;19.11;38.20
46946;BME280;32679;40.810;14.498;2024-02-21T07:50:50;75981.84;;;19.65;36.86
46946;BME280;32679;40.810;14.498;2024-02-21T07:53:15;75950.59;;;19.38;36.59
46946;BME280;32679;40.810;14.498;2024-02-21T07:55:41;75898.53;;;18.90;37.67
46946;BME280;32679;40.810;14.498;2024-02-21T07:58:06;75990.28;;;19.72;36.81
46946;BME280;32679;40.810;14.498;2024-02-21T08:00:31;76056.38;;;20.28;35.95
46946;BME280;32679;40.810;14.498;2024-02-21T08:02:57;76044.34;;;20.18;36.09
46946;BME280;32679;40.810;14.498;2024-02-21T08:05:22;75957.81;;;19.45;37.22
46946;BME280;32679;40.810;14.498;2024-02-21T08:07:48;75868.09;;;18.73;38.60
46946;BME280;32679;40.810;14.498;2024-02-21T08:10:13;75936.16;;;19.26;37.85
46946;BME280;32679;40.810;14.498;2024-02-21T08:12:39;76002.50;;;19.85;37.27
46946;BME280;32679;40.810;14.498;2024-02-21T08:15:05;75972.44;;;19.59;36.79
46946;BME280;32679;40.810;14.498;2024-02-21T08:17:31;76108.13;;;20.72;34.58
46946;BME280;32679;40.810;14.498;2024-02-21T08:19:57;75971.03;;;19.56;36.44
46946;BME280;32679;40.810;14.498;2024-02-21T08:22:22;76017.31;;;19.95;36.24
46946;BME280;32679;40.810;14.498;2024-02-21T08:24:47;76038.34;;;20.13;35.15
46946;BME280;32679;40.810;14.498;2024-02-21T08:27:13;76056.38;;;20.28;34.09
46946;BME280;32679;40.810;14.498;2024-02-21T08:29:38;76059.19;;;20.35;33.23
46946;BME280;32679;40.810;14.498;2024-02-21T08:32:03;75922.16;;;19.19;33.56
46946;BME280;32679;40.810;14.498;2024-02-21T08:38:10;75981.47;;;19.67;33.88
46946;BME280;32679;40.810;14.498;2024-02-21T08:40:36;75992.47;;;19.79;34.23
46946;BME280;32679;40.810;14.498;2024-02-21T08:43:02;76027.53;;;20.04;33.60
46946;BME280;32679;40.810;14.498;2024-02-21T08:45:27;76025.94;;;20.05;32.97
46946;BME280;32679;40.810;14.498;2024-02-21T08:47:52;76080.28;;;20.46;32.36
46946;BME280;32679;40.810;14.498;2024-02-21T08:50:18;76068.03;;;20.40;32.38
46946;BME280;32679;40.810;14.498;2024-02-21T08:52:43;76021.91;;;19.97;33.35
46946;BME280;32679;40.810;14.498;2024-02-21T08:55:09;76089.28;;;20.54;33.15
46946;BME280;32679;40.810;14.498;2024-02-21T08:57:34;76073.41;;;20.45;32.30
46946;BME280;32679;40.810;14.498;2024-02-21T09:00:04;76108.31;;;20.75;32.81
46946;BME280;32679;40.810;14.498;2024-02-21T09:02:35;76066.41;;;20.41;32.51
46946;BME280;32679;40.810;14.498;2024-02-21T09:05:02;76022.53;;;20.04;33.77
46946;BME280;32679;40.810;14.498;2024-02-21T09:07:30;76052.38;;;20.27;33.14
46946;BME280;32679;40.810;14.498;2024-02-21T09:09:55;76030.53;;;20.06;33.68
46946;BME280;32679;40.810;14.498;2024-02-21T09:12:21;75968.22;;;19.56;33.71
46946;BME280;32679;40.810;14.498;2024-02-21T09:14:46;76066.78;;;20.39;33.49
46946;BME280;32679;40.810;14.498;2024-02-21T09:17:14;76027.94;;;20.09;32.49
46946;BME280;32679;40.810;14.498;2024-02-21T09:19:42;76009.50;;;19.88;32.80
46946;BME280;32679;40.810;14.498;2024-02-21T09:22:08;75985.88;;;19.73;32.60
46946;BME280;32679;40.810;14.498;2024-02-21T09:27:25;75983.47;;;19.71;33.29
46946;BME280;32679;40.810;14.498;2024-02-21T09:32:47;75941.16;;;19.33;33.60
46946;BME280;32679;40.810;14.498;2024-02-21T09:35:13;75913.34;;;19.07;32.67
46946;BME280;32679;40.810;14.498;2024-02-21T09:37:43;75869.69;;;18.72;33.45
46946;BME280;32679;40.810;14.498;2024-02-21T09:45:46;75973.03;;;19.60;33.25
46946;BME280;32679;40.810;14.498;2024-02-21T09:50:45;76134.59;;;20.95;31.85
46946;BME280;32679;40.810;14.498;2024-02-21T09:53:12;76060.59;;;20.32;31.65
46946;BME280;32679;40.810;14.498;2024-02-21T10:53:29;75962.81;;;19.51;33.94
46946;BME280;32679;40.810;14.498;2024-02-21T11:30:04;75776.41;;;17.91;37.48
46946;BME280;32679;40.810;14.498;2024-02-21T11:32:30;75783.63;;;17.97;37.12
46946;BME280;32679;40.810;14.498;2024-02-21T11:42:59;75936.16;;;19.26;34.96
46946;BME280;32679;40.810;14.498;2024-02-21T11:53:36;75845.66;;;18.52;36.57
46946;BME280;32679;40.810;14.498;2024-02-21T11:56:02;75772.63;;;17.92;35.44
46946;BME280;32679;40.810;14.498;2024-02-21T11:58:28;75762.81;;;17.82;36.29
46946;BME280;32679;40.810;14.498;2024-02-21T12:00:55;75763.22;;;17.79;36.52
46946;BME280;32679;40.810;14.498;2024-02-21T12:03:21;75801.81;;;18.15;35.01
46946;BME280;32679;40.810;14.498;2024-02-21T12:05:46;75771.22;;;17.82;34.52
46946;BME280;32679;40.810;14.498;2024-02-21T12:08:12;75808.84;;;18.18;34.66
46946;BME280;32679;40.810;14.498;2024-02-21T12:10:37;75831.25;;;18.40;35.16
46946;BME280;32679;40.810;14.498;2024-02-21T12:13:09;75856.25;;;18.58;34.97
46946;BME280;32679;40.810;14.498;2024-02-21T12:15:35;75824.44;;;18.31;34.74
46946;BME280;32679;40.810;14.498;2024-02-21T12:18:00;75762.41;;;17.76;35.85
46946;BME280;32679;40.810;14.498;2024-02-21T12:23:01;75747.59;;;17.66;35.92
46946;BME280;32679;40.810;14.498;2024-02-21T12:33:54;75797.63;;;18.04;35.28
46946;BME280;32679;40.810;14.498;2024-02-21T13:04:48;75889.13;;;18.84;35.23
46946;BME280;32679;40.810;14.498;2024-02-21T13:13:38;75842.84;;;18.52;35.49
46946;BME280;32679;40.810;14.498;2024-02-21T13:28:27;75772.81;;;17.88;38.36
46946;BME280;32679;40.810;14.498;2024-02-21T13:30:53;75727.97;;;17.45;38.03
46946;BME280;32679;40.810;14.498;2024-02-21T13:33:18;75756.00;;;17.73;38.13
46946;BME280;32679;40.810;14.498;2024-02-21T13:35:44;75748.78;;;17.67;37.98
46946;BME280;32679;40.810;14.498;2024-02-21T13:38:10;75755.19;;;17.70;37.51
46946;BME280;32679;40.810;14.498;2024-02-21T13:40:36;75803.25;;;18.18;36.63
46946;BME280;32679;40.810;14.498;2024-02-21T13:43:01;75828.66;;;18.35;36.79
46946;BME280;32679;40.810;14.498;2024-02-21T13:45:27;75846.66;;;18.50;36.45
46946;BME280;32679;40.810;14.498;2024-02-21T13:47:53;75843.25;;;18.50;36.25
46946;BME280;32679;40.810;14.498;2024-02-21T13:50:18;75910.34;;;19.04;35.83
46946;BME280;32679;40.810;14.498;2024-02-21T13:52:45;75891.31;;;18.91;35.43
46946;BME280;32679;40.810;14.498;2024-02-21T13:55:11;75865.28;;;18.66;36.21
46946;BME280;32679;40.810;14.498;2024-02-21T13:57:37;75888.13;;;18.93;36.33
46946;BME280;32679;40.810;14.498;2024-02-21T14:00:04;75872.69;;;18.75;35.95
46946;BME280;32679;40.810;14.498;2024-02-21T14:16:15;75783.63;;;17.97;35.90
46946;BME280;32679;40.810;14.498;2024-02-21T14:18:47;75807.63;;;18.24;36.78
46946;BME280;32679;40.810;14.498;2024-02-21T14:21:13;75842.44;;;18.47;36.11
46946;BME280;32679;40.810;14.498;2024-02-21T14:23:40;75866.47;;;18.67;35.91
46946;BME280;32679;40.810;14.498;2024-02-21T14:26:07;75910.34;;;19.04;35.29
46946;BME280;32679;40.810;14.498;2024-02-21T14:28:33;75821.03;;;18.24;35.65
46946;BME280;32679;40.810;14.498;2024-02-21T14:31:02;75731.38;;;17.52;36.82
46946;BME280;32679;40.810;14.498;2024-02-21T14:33:29;75749.59;;;17.63;36.19
46946;BME280;32679;40.810;14.498;2024-02-21T14:36:02;75773.41;;;17.88;35.81
46946;BME280;32679;40.810;14.498;2024-02-21T14:38:28;75818.44;;;18.26;35.68
46946;BME280;32679;40.810;14.498;2024-02-21T14:40:54;75823.03;;;18.28;35.80
46946;BME280;32679;40.810;14.498;2024-02-21T14:43:20;75810.03;;;18.19;36.20
46946;BME280;32679;40.810;14.498;2024-02-21T14:45:49;75770.41;;;17.86;36.22
46946;BME280;32679;40.810;14.498;2024-02-21T14:48:16;75807.22;;;18.19;35.97
46946;BME280;32679;40.810;14.498;2024-02-21T14:50:47;75835.84;;;18.41;35.55
46946;BME280;32679;40.810;14.498;2024-02-21T14:53:17;75825.03;;;18.32;35.54
46946;BME280;32679;40.810;14.498;2024-02-21T14:55:46;75762.81;;;17.74;35.89
46946;BME280;32679;40.810;14.498;2024-02-21T14:58:13;75712.78;;;17.37;36.53
46946;BME280;32679;40.810;14.498;2024-02-21T15:00:40;75736.78;;;17.57;36.48
46946;BME280;32679;40.810;14.498;2024-02-21T15:03:07;75733.59;;;17.59;36.66
46946;BME280;32679;40.810;14.498;2024-02-21T15:05:36;75744.00;;;17.63;36.53
46946;BME280;32679;40.810;14.498;2024-02-21T15:08:03;75756.19;;;17.69;37.14
46946;BME280;32679;40.810;14.498;2024-02-21T15:10:29;75732.59;;;17.53;36.09
46946;BME280;32679;40.810;14.498;2024-02-21T15:12:57;75752.00;;;17.72;35.58
46946;BME280;32679;40.810;14.498;2024-02-21T15:15:26;75776.41;;;17.91;35.30
46946;BME280;32679;40.810;14.498;2024-02-21T15:17:51;75732.78;;;17.56;37.74
46946;BME280;32679;40.810;14.498;2024-02-21T15:20:17;75751.19;;;17.69;38.23
46946;BME280;32679;40.810;14.498;2024-02-21T15:22:48;75719.16;;;17.40;38.51
46946;BME280;32679;40.810;14.498;2024-02-21T15:25:14;75646.00;;;16.85;39.07
46946;BME280;32679;40.810;14.498;2024-02-21T15:27:47;75641.00;;;16.78;39.54
46946;BME280;32679;40.810;14.498;2024-02-21T15:30:28;75669.97;;;16.98;39.60
46946;BME280;32679;40.810;14.498;2024-02-21T15:32:57;75646.78;;;16.81;40.49
46946;BME280;32679;40.810;14.498;2024-02-21T15:35:28;75627.16;;;16.66;40.58
46946;BME280;32679;40.810;14.498;2024-02-21T15:37:55;75633.19;;;16.71;40.81
46946;BME280;32679;40.810;14.498;2024-02-21T15:40:22;75612.75;;;16.47;41.18
46946;BME280;32679;40.810;14.498;2024-02-21T15:42:49;75631.97;;;16.63;40.93
46946;BME280;32679;40.810;14.498;2024-02-21T15:45:15;75614.56;;;16.48;41.44
46946;BME280;32679;40.810;14.498;2024-02-21T15:47:43;75605.16;;;16.43;41.27
46946;BME280;32679;40.810;14.498;2024-02-21T15:50:16;75593.38;;;16.35;41.56
46946;BME280;32679;40.810;14.498;2024-02-21T15:52:56;75593.38;;;16.35;42.24
46946;BME280;32679;40.810;14.498;2024-02-21T15:55:22;75579.97;;;16.21;42.77
46946;BME280;32679;40.810;14.498;2024-02-21T15:57:48;75552.41;;;15.98;42.22
46946;BME280;32679;40.810;14.498;2024-02-21T16:00:14;75565.19;;;16.11;41.91
46946;BME280;32679;40.810;14.498;2024-02-21T16:02:41;75565.19;;;16.11;42.63
46946;BME280;32679;40.810;14.498;2024-02-21T16:05:08;75578.78;;;16.20;43.68
46946;BME280;32679;40.810;14.498;2024-02-21T16:07:40;75588.38;;;16.29;43.61
46946;BME280;32679;40.810;14.498;2024-02-21T16:10:08;75571.78;;;16.17;43.57
46946;BME280;32679;40.810;14.498;2024-02-21T16:12:48;75555.59;;;16.03;43.88
46946;BME280;32679;40.810;14.498;2024-02-21T16:15:17;75535.03;;;15.83;43.45
46946;BME280;32679;40.810;14.498;2024-02-21T16:17:44;75544.00;;;15.91;44.76
46946;BME280;32679;40.810;14.498;2024-02-21T16:20:10;75542.03;;;15.94;44.44
46946;BME280;32679;40.810;14.498;2024-02-21T16:22:39;75537.22;;;15.83;45.43
46946;BME280;32679;40.810;14.498;2024-02-21T16:25:08;75541.81;;;15.91;45.50
46946;BME280;32679;40.810;14.498;2024-02-21T16:27:34;75524.81;;;15.75;44.00
46946;BME280;32679;40.810;14.498;2024-02-21T16:30:01;75510.03;;;15.64;43.48
46946;BME280;32679;40.810;14.498;2024-02-21T16:32:32;75499.84;;;15.56;43.56
46946;BME280;32679;40.810;14.498;2024-02-21T16:35:09;75461.88;;;15.21;43.48
46946;BME280;32679;40.810;14.498;2024-02-21T16:37:41;75466.88;;;15.28;43.79
46946;BME280;32679;40.810;14.498;2024-02-21T16:40:12;75445.91;;;15.10;43.90
46946;BME280;32679;40.810;14.498;2024-02-21T16:42:49;75403.75;;;14.72;43.79
46946;BME280;32679;40.810;14.498;2024-02-21T16:45:18;75422.53;;;14.90;44.14
46946;BME280;32679;40.810;14.498;2024-02-21T16:47:51;75388.78;;;14.59;44.46
46946;BME280;32679;40.810;14.498;2024-02-21T16:50:18;75372.59;;;14.45;44.41
46946;BME280;32679;40.810;14.498;2024-02-21T16:52:47;75398.56;;;14.70;44.45
46946;BME280;32679;40.810;14.498;2024-02-21T16:55:16;75352.59;;;14.26;44.82
46946;BME280;32679;40.810;14.498;2024-02-21T16:57:46;75346.25;;;14.23;44.65
46946;BME280;32679;40.810;14.498;2024-02-21T17:00:18;75331.84;;;14.10;45.13
46946;BME280;32679;40.810;14.498;2024-02-21T17:02:46;75349.81;;;14.26;45.48
46946;BME280;32679;40.810;14.498;2024-02-21T17:05:12;75316.50;;;14.00;45.12
46946;BME280;32679;40.810;14.498;2024-02-21T17:07:39;75329.25;;;14.06;45.47
46946;BME280;32679;40.810;14.498;2024-02-21T17:10:08;75294.53;;;13.76;45.98
46946;BME280;32679;40.810;14.498;2024-02-21T17:12:37;75307.09;;;13.87;45.50
46946;BME280;32679;40.810;14.498;2024-02-21T17:15:08;75283.19;;;13.74;46.07
46946;BME280;32679;40.810;14.498;2024-02-21T17:17:45;75299.31;;;13.80;46.31
46946;BME280;32679;40.810;14.498;2024-02-21T17:20:11;75280.38;;;13.67;46.21
46946;BME280;32679;40.810;14.498;2024-02-21T17:22:39;75280.75;;;13.65;46.50
46946;BME280;32679;40.810;14.498;2024-02-21T17:25:08;75274.78;;;13.59;46.35
46946;BME280;32679;40.810;14.498;2024-02-21T17:27:38;75281.78;;;13.70;47.03
46946;BME280;32679;40.810;14.498;2024-02-21T17:30:05;75260.63;;;13.50;46.67
46946;BME280;32679;40.810;14.498;2024-02-21T17:32:31;75278.34;;;13.62;47.05
46946;BME280;32679;40.810;14.498;2024-02-21T17:35:00;75252.03;;;13.40;47.01
46946;BME280;32679;40.810;14.498;2024-02-21T17:37:29;75252.84;;;13.43;47.29
46946;BME280;32679;40.810;14.498;2024-02-21T17:39:56;75230.47;;;13.22;47.35
46946;BME280;32679;40.810;14.498;2024-02-21T17:42:21;75232.28;;;13.23;47.92
46946;BME280;32679;40.810;14.498;2024-02-21T17:44:47;75216.09;;;13.09;48.39
46946;BME280;32679;40.810;14.498;2024-02-21T17:47:14;75237.66;;;13.28;48.58
46946;BME280;32679;40.810;14.498;2024-02-21T17:49:39;75212.72;;;13.09;48.60
46946;BME280;32679;40.810;14.498;2024-02-21T17:52:11;75213.69;;;13.07;49.08
46946;BME280;32679;40.810;14.498;2024-02-21T17:54:37;75200.75;;;12.99;49.19
46946;BME280;32679;40.810;14.498;2024-02-21T17:57:05;75204.94;;;13.02;49.45
46946;BME280;32679;40.810;14.498;2024-02-21T17:59:30;75208.53;;;13.05;48.80
46946;BME280;32679;40.810;14.498;2024-02-21T18:01:57;75194.56;;;12.91;49.47
46946;BME280;32679;40.810;14.498;2024-02-21T18:04:22;75183.78;;;12.82;49.25
46946;BME280;32679;40.810;14.498;2024-02-21T18:06:48;75176.22;;;12.78;49.75
46946;BME280;32679;40.810;14.498;2024-02-21T18:09:14;75210.72;;;13.05;49.22
46946;BME280;32679;40.810;14.498;2024-02-21T18:11:40;75194.38;;;12.96;50.02
46946;BME280;32679;40.810;14.498;2024-02-21T18:14:06;75167.44;;;12.73;50.51
46946;BME280;32679;40.810;14.498;2024-02-21T18:16:33;75152.50;;;12.60;50.24
46946;BME280;32679;40.810;14.498;2024-02-21T18:19:04;75171.06;;;12.76;50.10
46946;BME280;32679;40.810;14.498;2024-02-21T18:21:32;75200.53;;;12.96;49.94
46946;BME280;32679;40.810;14.498;2024-02-21T18:23:58;75189.00;;;12.91;50.48
46946;BME280;32679;40.810;14.498;2024-02-21T18:26:24;75193.97;;;12.91;50.22
46946;BME280;32679;40.810;14.498;2024-02-21T18:28:51;75166.66;;;12.70;50.46
46946;BME280;32679;40.810;14.498;2024-02-21T18:31:18;75195.00;;;12.96;50.71
46946;BME280;32679;40.810;14.498;2024-02-21T18:33:45;75191.94;;;12.87;51.33
46946;BME280;32679;40.810;14.498;2024-02-21T18:36:12;75190.00;;;12.90;51.41
46946;BME280;32679;40.810;14.498;2024-02-21T18:38:38;75179.41;;;12.83;52.33
46946;BME280;32679;40.810;14.498;2024-02-21T18:41:04;75174.66;;;12.79;51.94
46946;BME280;32679;40.810;14.498;2024-02-21T18:43:33;75157.91;;;12.65;52.09
46946;BME280;32679;40.810;14.498;2024-02-21T18:45:59;75179.41;;;12.83;51.97
46946;BME280;32679;40.810;14.498;2024-02-21T18:48:26;75150.72;;;12.58;52.89
46946;BME280;32679;40.810;14.498;2024-02-21T18:50:55;75155.66;;;12.58;52.64
46946;BME280;32679;40.810;14.498;2024-02-21T18:53:20;75162.69;;;12.69;52.19
46946;BME280;32679;40.810;14.498;2024-02-21T18:55:45;75138.91;;;12.44;52.72
46946;BME280;32679;40.810;14.498;2024-02-21T18:58:11;75117.41;;;12.25;53.11
46946;BME280;32679;40.810;14.498;2024-02-21T19:00:37;75097.63;;;12.09;53.50
46946;BME280;32679;40.810;14.498;2024-02-21T19:03:04;75095.09;;;12.11;53.60
46946;BME280;32679;40.810;14.498;2024-02-21T19:05:29;75089.50;;;12.04;53.71
46946;BME280;32679;40.810;14.498;2024-02-21T19:07:58;75067.16;;;11.83;55.73
46946;BME280;32679;40.810;14.498;2024-02-21T19:10:28;75039.84;;;11.62;56.25
46946;BME280;32679;40.810;14.498;2024-02-21T19:12:57;75040.22;;;11.60;57.02
46946;BME280;32679;40.810;14.498;2024-02-21T19:15:22;75062.72;;;11.76;57.87
46946;BME280;32679;40.810;14.498;2024-02-21T19:17:51;75040.47;;;11.62;57.78
46946;BME280;32679;40.810;14.498;2024-02-21T19:20:22;75063.19;;;11.82;58.83
46946;BME280;32679;40.810;14.498;2024-02-21T19:22:50;75052.78;;;11.70;59.37
46946;BME280;32679;40.810;14.498;2024-02-21T19:25:18;75039.84;;;11.62;59.18
46946;BME280;32679;40.810;14.498;2024-02-21T19:27:46;75067.75;;;11.83;57.66
46946;BME280;32679;40.810;14.498;2024-02-21T19:30:12;75053.75;;;11.69;58.49
46946;BME280;32679;40.810;14.498;2024-02-21T19:32:38;75049.81;;;11.68;59.25
46946;BME280;32679;40.810;14.498;2024-02-21T19:35:06;75010.78;;;11.39;59.14
46946;BME280;32679;40.810;14.498;2024-02-21T19:37:39;75015.72;;;11.39;59.12
46946;BME280;32679;40.810;14.498;2024-02-21T19:40:07;75023.72;;;11.48;60.11
46946;BME280;32679;40.810;14.498;2024-02-21T19:42:32;75034.25;;;11.54;58.81
46946;BME280;32679;40.810;14.498;2024-02-21T19:44:58;75024.09;;;11.46;59.35
46946;BME280;32679;40.810;14.498;2024-02-21T19:47:23;75004.78;;;11.34;59.95
46946;BME280;32679;40.810;14.498;2024-02-21T19:49:51;75017.53;;;11.40;61.88
46946;BME280;32679;40.810;14.498;2024-02-21T19:52:18;74993.81;;;11.22;61.90
46946;BME280;32679;40.810;14.498;2024-02-21T19:54:43;74984.28;;;11.14;62.61
46946;BME280;32679;40.810;14.498;2024-02-21T19:57:09;74982.25;;;11.10;63.20
46946;BME280;32679;40.810;14.498;2024-02-21T19:59:34;74980.91;;;11.14;64.00
46946;BME280;32679;40.810;14.498;2024-02-21T20:02:02;74977.47;;;11.06;63.19
46946;BME280;32679;40.810;14.498;2024-02-21T20:04:33;74962.16;;;10.95;64.59
46946;BME280;32679;40.810;14.498;2024-02-21T20:07:01;74969.72;;;10.99;65.69
46946;BME280;32679;40.810;14.498;2024-02-21T20:09:27;74973.91;;;11.03;63.60
46946;BME280;32679;40.810;14.498;2024-02-21T20:11:53;74963.72;;;10.94;65.15
46946;BME280;32679;40.810;14.498;2024-02-21T20:14:20;74969.72;;;10.99;64.89
46946;BME280;32679;40.810;14.498;2024-02-21T20:16:46;74960.38;;;10.94;65.33
46946;BME280;32679;40.810;14.498;2024-02-21T20:19:16;74980.03;;;11.04;66.09
46946;BME280;32679;40.810;14.498;2024-02-21T20:21:42;74948.81;;;10.82;67.33
46946;BME280;32679;40.810;14.498;2024-02-21T20:24:09;74973.66;;;11.00;67.26
46946;BME280;32679;40.810;14.498;2024-02-21T20:26:34;74945.81;;;10.79;68.34
46946;BME280;32679;40.810;14.498;2024-02-21T20:29:00;74954.59;;;10.91;68.75
46946;BME280;32679;40.810;14.498;2024-02-21T20:31:28;74938.41;;;10.70;69.06
46946;BME280;32679;40.810;14.498;2024-02-21T20:33:56;74932.28;;;10.70;69.55
46946;BME280;32679;40.810;14.498;2024-02-21T20:36:26;74943.41;;;10.77;70.65
46946;BME280;32679;40.810;14.498;2024-02-21T20:38:51;74934.22;;;10.67;71.50
46946;BME280;32679;40.810;14.498;2024-02-21T20:41:18;74932.66;;;10.68;71.42
46946;BME280;32679;40.810;14.498;2024-02-21T20:43:47;74935.44;;;10.68;70.34
46946;BME280;32679;40.810;14.498;2024-02-21T20:46:13;74931.09;;;10.69;71.57
46946;BME280;32679;40.810;14.498;2024-02-21T20:48:38;74929.06;;;10.65;70.53
46946;BME280;32679;40.810;14.498;2024-02-21T20:51:04;74927.50;;;10.66;71.16
46946;BME280;32679;40.810;14.498;2024-02-21T20:53:29;74913.94;;;10.49;71.34
46946;BME280;32679;40.810;14.498;2024-02-21T20:55:55;74916.31;;;10.52;71.15
46946;BME280;32679;40.810;14.498;2024-02-21T20:58:20;74899.81;;;10.40;71.24
46946;BME280;32679;40.810;14.498;2024-02-21T21:00:46;74898.25;;;10.41;72.26
46946;BME280;32679;40.810;14.498;2024-02-21T21:03:11;74906.00;;;10.47;71.89
46946;BME280;32679;40.810;14.498;2024-02-21T21:05:42;74890.84;;;10.32;71.49
46946;BME280;32679;40.810;14.498;2024-02-21T21:08:09;74909.16;;;10.45;73.05
46946;BME280;32679;40.810;14.498;2024-02-21T21:10:36;74883.69;;;10.26;73.31
46946;BME280;32679;40.810;14.498;2024-02-21T21:13:02;74906.38;;;10.45;73.08
46946;BME280;32679;40.810;14.498;2024-02-21T21:15:28;74890.25;;;10.32;72.88
46946;BME280;32679;40.810;14.498;2024-02-21T21:17:55;74887.47;;;10.32;74.19
46946;BME280;32679;40.810;14.498;2024-02-21T21:20:21;74868.72;;;10.13;74.29
46946;BME280;32679;40.810;14.498;2024-02-21T21:22:51;74895.84;;;10.39;74.83
46946;BME280;32679;40.810;14.498;2024-02-21T21:25:18;74868.34;;;10.15;74.62
46946;BME280;32679;40.810;14.498;2024-02-21T21:27:44;74882.22;;;10.22;74.85
46946;BME280;32679;40.810;14.498;2024-02-21T21:30:12;74853.78;;;10.01;75.63
46946;BME280;32679;40.810;14.498;2024-02-21T21:32:39;74874.13;;;10.18;75.63
46946;BME280;32679;40.810;14.498;2024-02-21T21:35:12;74896.00;;;10.34;74.86
46946;BME280;32679;40.810;14.498;2024-02-21T21:37:39;74849.03;;;9.96;75.17
46946;BME280;32679;40.810;14.498;2024-02-21T21:40:08;74866.72;;;10.09;75.98
46946;BME280;32679;40.810;14.498;2024-02-21T21:42:35;74860.97;;;10.07;77.53
46946;BME280;32679;40.810;14.498;2024-02-21T21:45:01;74878.66;;;10.19;76.69
46946;BME280;32679;40.810;14.498;2024-02-21T21:47:27;74841.84;;;9.90;77.76
46946;BME280;32679;40.810;14.498;2024-02-21T21:49:54;74866.19;;;10.16;77.79
46946;BME280;32679;40.810;14.498;2024-02-21T21:52:20;74865.38;;;10.13;78.36
46946;BME280;32679;40.810;14.498;2024-02-21T21:54:46;74853.78;;;10.01;77.87
46946;BME280;32679;40.810;14.498;2024-02-21T21:57:11;74852.59;;;10.00;78.44
46946;BME280;32679;40.810;14.498;2024-02-21T21:59:40;74840.06;;;9.89;78.68
46946;BME280;32679;40.810;14.498;2024-02-21T22:02:05;74834.47;;;9.82;79.65
46946;BME280;32679;40.810;14.498;2024-02-21T22:04:31;74816.78;;;9.69;80.44
46946;BME280;32679;40.810;14.498;2024-02-21T22:06:56;74819.19;;;9.71;79.57
46946;BME280;32679;40.810;14.498;2024-02-21T22:09:23;74830.13;;;9.83;79.55
46946;BME280;32679;40.810;14.498;2024-02-21T22:11:48;74831.13;;;9.81;80.39
46946;BME280;32679;40.810;14.498;2024-02-21T22:14:14;74847.22;;;9.95;81.19
46946;BME280;32679;40.810;14.498;2024-02-21T22:16:41;74850.97;;;9.93;81.45
46946;BME280;32679;40.810;14.498;2024-02-21T22:19:06;74838.03;;;9.85;81.70
46946;BME280;32679;40.810;14.498;2024-02-21T22:21:32;74855.75;;;9.97;82.66
46946;BME280;32679;40.810;14.498;2024-02-21T22:23:58;74825.16;;;9.76;82.98
46946;BME280;32679;40.810;14.498;2024-02-21T22:26:23;74827.91;;;9.76;83.07
46946;BME280;32679;40.810;14.498;2024-02-21T22:28:49;74826.72;;;9.75;83.93
46946;BME280;32679;40.810;14.498;2024-02-21T22:31:15;74814.41;;;9.67;83.92
46946;BME280;32679;40.810;14.498;2024-02-21T22:33:41;74822.38;;;9.76;83.72
46946;BME280;32679;40.810;14.498;2024-02-21T22:36:10;74821.19;;;9.75;84.45
46946;BME280;32679;40.810;14.498;2024-02-21T22:38:44;74808.81;;;9.60;84.32
46946;BME280;32679;40.810;14.498;2024-02-21T22:41:09;74818.13;;;9.65;84.19
46946;BME280;32679;40.810;14.498;2024-02-21T22:43:35;74838.63;;;9.85;84.71
46946;BME280;32679;40.810;14.498;2024-02-21T22:46:04;74799.09;;;9.56;84.47
46946;BME280;32679;40.810;14.498;2024-02-21T22:48:29;74792.31;;;9.48;84.32
46946;BME280;32679;40.810;14.498;2024-02-21T22:50:55;74786.34;;;9.43;85.31